createdAt,value
2023-03-16T00:00:27.643Z,6.97
2023-03-16T00:02:58.035Z,6.57
2023-03-16T00:05:28.328Z,5.17
2023-03-16T00:08:17.295Z,5.27
2023-03-16T00:11:07.123Z,4.80
2023-03-16T00:13:37.189Z,5.20
2023-03-16T00:16:08.261Z,4.50
2023-03-16T00:18:39.577Z,5.00
2023-03-16T00:21:09.282Z,4.27
2023-03-16T00:23:39.206Z,3.87
2023-03-16T00:26:32.288Z,4.30
2023-03-16T00:29:02.484Z,4.03
2023-03-16T00:31:34.447Z,4.40
2023-03-16T00:34:24.222Z,4.73
2023-03-16T00:36:55.868Z,7.70
2023-03-16T00:39:44.127Z,7.77
2023-03-16T00:42:18.860Z,12.17
2023-03-16T00:44:49.265Z,8.13
2023-03-16T00:47:56.142Z,6.10
2023-03-16T00:50:44.481Z,5.40
2023-03-16T00:53:14.834Z,5.57
2023-03-16T00:55:44.835Z,6.17
2023-03-16T00:58:36.466Z,5.53
2023-03-16T01:01:07.946Z,5.80
2023-03-16T01:03:38.596Z,6.60
2023-03-16T01:06:12.136Z,6.67
2023-03-16T01:08:44.009Z,6.27
2023-03-16T01:11:16.879Z,6.37
2023-03-16T01:13:49.872Z,7.13
2023-03-16T01:16:21.030Z,8.43
2023-03-16T01:18:53.183Z,9.23
2023-03-16T01:21:23.826Z,8.87
2023-03-16T01:23:54.540Z,11.40
2023-03-16T01:26:25.873Z,10.63
2023-03-16T01:28:57.536Z,10.00
2023-03-16T01:31:28.676Z,8.30
2023-03-16T01:34:16.524Z,5.93
2023-03-16T01:37:23.096Z,6.23
2023-03-16T01:40:02.845Z,6.07
2023-03-16T01:46:28.531Z,6.70
2023-03-16T01:49:07.506Z,5.90
2023-03-16T01:51:58.501Z,5.83
2023-03-16T01:54:33.539Z,6.17
2023-03-16T01:57:08.488Z,5.57
2023-03-16T01:59:41.167Z,6.10
2023-03-16T02:02:32.872Z,5.73
2023-03-16T02:05:10.174Z,6.03
2023-03-16T02:07:46.325Z,5.63
2023-03-16T02:13:06.336Z,5.90
2023-03-16T02:15:37.116Z,5.57
2023-03-16T02:18:08.413Z,5.67
2023-03-16T02:21:00.642Z,5.83
2023-03-16T02:23:33.142Z,5.60
2023-03-16T02:26:09.087Z,5.77
2023-03-16T02:29:03.063Z,6.03
2023-03-16T02:31:36.258Z,5.30
2023-03-16T02:34:07.397Z,6.07
2023-03-16T02:36:38.839Z,6.00
2023-03-16T02:39:08.972Z,5.57
2023-03-16T02:41:46.867Z,5.20
2023-03-16T02:44:20.876Z,5.30
2023-03-16T02:47:11.473Z,5.13
2023-03-16T02:49:44.673Z,5.23
2023-03-16T02:52:15.408Z,4.87
2023-03-16T02:54:45.513Z,4.50
2023-03-16T02:57:16.082Z,4.47
2023-03-16T03:00:12.176Z,5.00
2023-03-16T03:02:47.351Z,4.83
2023-03-16T03:05:17.724Z,4.43
2023-03-16T03:07:47.956Z,4.93
2023-03-16T03:10:18.896Z,4.43
2023-03-16T03:12:50.068Z,4.07
2023-03-16T03:15:20.366Z,4.00
2023-03-16T03:18:15.163Z,4.37
2023-03-16T03:20:45.287Z,4.70
2023-03-16T03:23:16.014Z,4.60
2023-03-16T03:25:46.138Z,3.80
2023-03-16T03:28:16.675Z,4.07
2023-03-16T03:30:47.704Z,3.60
2023-03-16T03:33:19.460Z,3.90
2023-03-16T03:35:49.819Z,3.90
2023-03-16T03:38:21.649Z,3.67
2023-03-16T03:40:53.506Z,3.80
2023-03-16T03:43:24.746Z,3.77
2023-03-16T03:45:59.825Z,3.40
2023-03-16T03:51:37.692Z,4.20
2023-03-16T03:54:12.426Z,4.40
2023-03-16T03:57:00.673Z,4.23
2023-03-16T03:59:30.793Z,4.90
2023-03-16T04:02:19.320Z,4.33
2023-03-16T04:05:11.173Z,4.03
2023-03-16T04:07:41.889Z,4.47
2023-03-16T04:10:32.409Z,4.40
2023-03-16T04:16:28.940Z,4.03
2023-03-16T04:19:18.129Z,4.30
2023-03-16T04:22:06.984Z,4.13
2023-03-16T04:24:55.121Z,4.13
2023-03-16T04:27:27.591Z,4.80
2023-03-16T04:30:00.281Z,5.13
2023-03-16T04:32:47.845Z,4.90
2023-03-16T04:35:22.735Z,5.40
2023-03-16T04:37:58.576Z,4.97
2023-03-16T04:40:37.828Z,4.60
2023-03-16T04:43:16.885Z,4.83
2023-03-16T04:46:06.800Z,4.37
2023-03-16T04:48:38.178Z,4.77
2023-03-16T04:51:27.714Z,4.47
2023-03-16T04:54:14.791Z,4.10
2023-03-16T04:56:46.834Z,3.67
2023-03-16T04:59:40.188Z,3.70
2023-03-16T05:02:39.705Z,4.13
2023-03-16T05:05:10.508Z,4.30
2023-03-16T05:07:45.168Z,3.40
2023-03-16T05:10:19.217Z,3.30
2023-03-16T05:12:51.130Z,4.37
2023-03-16T05:15:21.943Z,3.57
2023-03-16T05:18:20.690Z,3.43
2023-03-16T05:20:53.029Z,3.67
2023-03-16T05:23:58.885Z,3.77
2023-03-16T05:26:30.643Z,4.00
2023-03-16T05:29:02.623Z,3.80
2023-03-16T05:31:34.427Z,4.10
2023-03-16T05:34:24.366Z,4.20
2023-03-16T05:36:55.402Z,3.53
2023-03-16T05:39:26.227Z,3.60
2023-03-16T05:42:16.123Z,3.30
2023-03-16T05:44:52.687Z,3.73
2023-03-16T05:47:39.642Z,3.10
2023-03-16T05:50:13.510Z,3.50
2023-03-16T05:52:46.685Z,3.13
2023-03-16T05:55:22.845Z,4.07
2023-03-16T05:58:00.061Z,3.70
2023-03-16T06:00:30.716Z,3.57
2023-03-16T06:03:13.744Z,3.37
2023-03-16T06:08:40.465Z,3.70
2023-03-16T06:11:13.482Z,4.07
2023-03-16T06:13:46.339Z,3.90
2023-03-16T06:16:17.763Z,4.13
2023-03-16T06:21:54.712Z,3.57
2023-03-16T06:24:24.954Z,3.90
2023-03-16T06:26:56.669Z,4.33
2023-03-16T06:29:34.369Z,4.30
2023-03-16T06:32:05.686Z,4.90
2023-03-16T06:34:53.342Z,5.67
2023-03-16T06:37:24.157Z,5.70
2023-03-16T06:40:11.281Z,6.10
2023-03-16T06:42:41.385Z,6.47
2023-03-16T06:45:18.378Z,6.20
2023-03-16T06:47:48.495Z,5.93
2023-03-16T06:50:19.541Z,5.87
2023-03-16T06:53:07.271Z,5.57
2023-03-16T06:55:39.432Z,5.67
2023-03-16T06:58:27.782Z,6.10
2023-03-16T07:01:18.717Z,6.50
2023-03-16T07:03:49.861Z,6.20
2023-03-16T07:06:27.645Z,5.70
2023-03-16T07:08:57.642Z,5.07
2023-03-16T07:11:28.068Z,4.80
2023-03-16T07:14:00.128Z,3.70
2023-03-16T07:16:32.676Z,3.33
2023-03-16T07:19:06.605Z,3.87
2023-03-16T07:21:40.527Z,3.80
2023-03-16T07:24:15.754Z,3.90
2023-03-16T07:26:46.802Z,3.63
2023-03-16T07:29:27.772Z,2.80
2023-03-16T07:32:00.345Z,2.70
2023-03-16T07:34:39.288Z,2.63
2023-03-16T07:37:28.369Z,2.70
2023-03-16T07:40:01.126Z,6.40
2023-03-16T07:42:31.140Z,4.07
2023-03-16T07:45:35.667Z,4.10
2023-03-16T07:51:32.039Z,13.23
2023-03-16T07:54:02.032Z,3.10
2023-03-16T07:56:50.116Z,5.13
2023-03-16T07:59:52.665Z,5.57
2023-03-16T08:02:24.342Z,4.13
2023-03-16T08:07:47.265Z,5.33
2023-03-16T08:10:35.932Z,3.70
2023-03-16T08:13:19.673Z,3.90
2023-03-16T08:15:56.371Z,5.33
2023-03-16T08:18:32.507Z,22.07
2023-03-16T08:21:04.163Z,43.23
2023-03-16T08:23:34.889Z,15.47
2023-03-16T08:26:09.204Z,5.17
2023-03-16T08:31:27.864Z,12.33
2023-03-16T08:34:05.875Z,36.33
2023-03-16T08:36:44.396Z,43.97
2023-03-16T08:39:17.697Z,22.37
2023-03-16T08:41:50.627Z,5.33
2023-03-16T08:44:29.612Z,6.57
2023-03-16T08:47:17.736Z,3.77
2023-03-16T08:49:48.275Z,4.03
2023-03-16T08:52:37.744Z,2.73
2023-03-16T08:55:11.346Z,2.77
2023-03-16T08:57:59.388Z,3.40
2023-03-16T09:00:30.127Z,3.33
2023-03-16T09:03:01.206Z,3.33
2023-03-16T09:05:31.382Z,3.00
2023-03-16T09:08:04.500Z,3.63
2023-03-16T09:10:54.656Z,3.30
2023-03-16T09:13:24.881Z,2.50
2023-03-16T09:15:54.743Z,2.73
2023-03-16T09:18:26.663Z,2.47
2023-03-16T09:21:00.666Z,2.70
2023-03-16T09:23:32.448Z,2.87
2023-03-16T09:26:04.187Z,3.10
2023-03-16T09:28:35.325Z,3.23
2023-03-16T09:31:05.036Z,2.93
2023-03-16T09:33:52.049Z,3.37
2023-03-16T09:39:12.043Z,2.53
2023-03-16T09:41:49.272Z,3.30
2023-03-16T09:44:34.093Z,2.87
2023-03-16T09:47:40.873Z,2.83
2023-03-16T09:50:47.387Z,2.40
2023-03-16T09:53:28.017Z,2.87
2023-03-16T09:56:20.773Z,2.33
2023-03-16T09:58:50.774Z,2.60
2023-03-16T10:01:36.465Z,2.20
2023-03-16T10:04:34.536Z,2.37
2023-03-16T10:07:16.124Z,2.40
2023-03-16T10:09:53.517Z,2.37
2023-03-16T10:13:08.089Z,2.10
2023-03-16T10:15:39.510Z,2.07
2023-03-16T10:18:16.195Z,2.10
2023-03-16T10:21:04.743Z,2.53
2023-03-16T10:23:40.268Z,2.50
2023-03-16T10:26:33.353Z,2.73
2023-03-16T10:29:23.024Z,1.97
2023-03-16T10:31:54.115Z,2.40
2023-03-16T10:34:25.512Z,2.23
2023-03-16T10:36:57.490Z,2.30
2023-03-16T10:39:28.619Z,2.10
2023-03-16T10:42:18.715Z,2.40
2023-03-16T10:44:51.180Z,2.40
2023-03-16T10:47:25.933Z,2.20
2023-03-16T10:50:17.115Z,2.27
2023-03-16T10:52:50.220Z,2.17
2023-03-16T10:55:25.457Z,2.50
2023-03-16T11:00:48.345Z,2.43
2023-03-16T11:06:32.901Z,2.50
2023-03-16T11:09:09.188Z,2.30
2023-03-16T11:11:39.299Z,1.90
2023-03-16T11:14:46.843Z,2.00
2023-03-16T11:17:23.079Z,2.20
2023-03-16T11:19:56.443Z,2.40
2023-03-16T11:22:27.290Z,2.20
2023-03-16T11:25:04.769Z,2.30
2023-03-16T11:27:41.189Z,1.93
2023-03-16T11:30:18.330Z,2.37
2023-03-16T11:32:54.038Z,2.00
2023-03-16T11:35:58.427Z,2.10
2023-03-16T11:38:36.803Z,2.30
2023-03-16T11:41:15.428Z,2.17
2023-03-16T11:43:53.932Z,2.27
2023-03-16T11:49:34.325Z,2.07
2023-03-16T11:52:15.388Z,2.30
2023-03-16T12:00:54.360Z,2.20
2023-03-16T12:04:03.339Z,2.17
2023-03-16T12:06:53.481Z,2.00
2023-03-16T12:09:59.532Z,2.53
2023-03-16T12:13:01.122Z,2.50
2023-03-16T12:15:56.526Z,2.20
2023-03-16T12:18:32.551Z,2.50
2023-03-16T12:21:07.482Z,2.70
2023-03-16T12:23:43.650Z,2.37
2023-03-16T12:26:15.303Z,2.27
2023-03-16T12:28:45.624Z,2.40
2023-03-16T12:31:20.514Z,2.50
2023-03-16T12:34:06.341Z,2.30
2023-03-16T12:37:00.017Z,2.57
2023-03-16T12:39:55.534Z,2.50
2023-03-16T12:42:58.213Z,2.50
2023-03-16T12:45:37.819Z,2.40
2023-03-16T12:48:22.509Z,2.50
2023-03-16T12:50:57.560Z,2.77
2023-03-16T12:53:31.705Z,2.63
2023-03-16T12:56:10.588Z,2.43
2023-03-16T12:58:45.929Z,2.60
2023-03-16T13:01:19.095Z,2.70
2023-03-16T13:03:51.891Z,2.40
2023-03-16T13:06:24.994Z,2.87
2023-03-16T13:09:44.560Z,2.40
2023-03-16T13:22:47.119Z,2.70
2023-03-16T13:28:32.012Z,2.60
2023-03-16T13:31:05.223Z,2.60
2023-03-16T13:36:58.781Z,2.45
2023-03-16T13:39:30.432Z,3.28
2023-03-16T13:42:07.329Z,2.63
2023-03-16T13:44:59.547Z,2.83
2023-03-16T13:47:54.243Z,2.60
2023-03-16T13:50:24.265Z,3.40
2023-03-16T13:52:59.296Z,2.75
2023-03-16T13:58:26.476Z,2.72
2023-03-16T14:01:19.668Z,3.30
2023-03-16T14:03:51.896Z,2.90
2023-03-16T14:06:25.693Z,2.90
2023-03-16T14:09:00.016Z,2.28
2023-03-16T14:11:31.064Z,3.05
2023-03-16T14:17:16.268Z,2.78
2023-03-16T14:19:50.373Z,3.10
2023-03-16T14:22:40.176Z,3.20
2023-03-16T14:25:19.790Z,3.28
2023-03-16T14:27:58.814Z,3.30
2023-03-16T14:30:30.839Z,2.67
2023-03-16T14:33:04.449Z,3.00
2023-03-16T14:35:41.913Z,3.45
2023-03-16T14:38:30.596Z,2.78
2023-03-16T14:41:05.857Z,2.88
2023-03-16T14:43:40.902Z,2.97
2023-03-16T14:46:18.269Z,3.00
2023-03-16T14:48:51.171Z,2.70
2023-03-16T14:51:20.985Z,2.85
2023-03-16T14:53:51.743Z,3.00
2023-03-16T14:56:58.291Z,3.20
2023-03-16T14:59:29.228Z,3.78
2023-03-16T15:02:00.107Z,3.72
2023-03-16T15:04:35.514Z,4.55
2023-03-16T15:07:23.449Z,3.17
2023-03-16T15:09:56.745Z,3.30
2023-03-16T15:12:51.533Z,2.80
2023-03-16T15:15:24.718Z,3.37
2023-03-16T15:20:50.281Z,3.22
2023-03-16T15:23:23.253Z,2.97
2023-03-16T15:25:58.992Z,3.20
2023-03-16T15:28:30.654Z,3.30
2023-03-16T15:33:49.469Z,2.70
2023-03-16T15:36:22.825Z,2.92
2023-03-16T15:39:18.951Z,2.63
2023-03-16T15:41:48.862Z,3.22
2023-03-16T15:47:24.327Z,2.95
2023-03-16T15:49:55.031Z,2.85
2023-03-16T15:55:24.299Z,3.10
2023-03-16T15:58:36.792Z,3.20
2023-03-16T16:01:11.739Z,3.08
2023-03-16T16:04:00.630Z,3.20
2023-03-16T16:06:31.005Z,2.90
2023-03-16T16:09:03.688Z,3.42
2023-03-16T16:11:36.365Z,3.30
2023-03-16T16:14:08.107Z,3.17
2023-03-16T16:16:47.206Z,4.15
2023-03-16T16:19:19.831Z,3.40
2023-03-16T16:25:16.995Z,2.60
2023-03-16T16:27:48.558Z,3.35
2023-03-16T16:34:49.770Z,3.00
2023-03-16T16:37:46.363Z,3.08
2023-03-16T16:40:46.225Z,3.40
2023-03-16T16:43:31.867Z,3.87
2023-03-16T16:46:02.708Z,3.33
2023-03-16T16:48:35.606Z,3.10
2023-03-16T16:51:07.549Z,3.60
2023-03-16T16:53:37.766Z,3.30
2023-03-16T16:56:14.649Z,2.93
2023-03-16T16:59:04.451Z,2.93
2023-03-16T17:01:37.482Z,3.13
2023-03-16T17:04:31.455Z,3.10
2023-03-16T17:07:03.052Z,7.53
2023-03-16T17:09:33.180Z,11.40
2023-03-16T17:12:23.262Z,9.20
2023-03-16T17:15:26.507Z,6.07
2023-03-16T17:18:02.595Z,5.03
2023-03-16T17:20:34.877Z,4.77
2023-03-16T17:23:05.209Z,5.93
2023-03-16T17:28:24.276Z,4.47
2023-03-16T17:30:54.535Z,5.10
2023-03-16T17:33:27.286Z,5.90
2023-03-16T17:36:15.934Z,6.70
2023-03-16T17:38:47.590Z,6.33
2023-03-16T17:41:24.882Z,9.00
2023-03-16T17:43:57.967Z,8.10
2023-03-16T17:46:31.516Z,6.20
2023-03-16T17:49:02.411Z,6.00
2023-03-16T17:51:33.460Z,6.40
2023-03-16T17:54:04.690Z,6.80
2023-03-16T17:56:37.893Z,12.07
2023-03-16T17:59:21.328Z,11.50
2023-03-16T18:01:51.652Z,13.00
2023-03-16T18:04:24.133Z,12.43
2023-03-16T18:06:54.652Z,12.60
2023-03-16T18:09:24.560Z,9.50
2023-03-16T18:11:54.436Z,10.20
2023-03-16T18:14:36.687Z,11.70
2023-03-16T18:17:15.602Z,12.27
2023-03-16T18:19:46.339Z,12.07
2023-03-16T18:22:20.960Z,22.10
2023-03-16T18:24:51.491Z,17.63
2023-03-16T18:27:39.734Z,18.73
2023-03-16T18:30:13.127Z,17.37
2023-03-16T18:32:43.301Z,20.67
2023-03-16T18:35:17.771Z,15.07
2023-03-16T18:37:48.609Z,12.63
2023-03-16T18:40:57.637Z,11.40
2023-03-16T18:43:28.378Z,11.53
2023-03-16T18:46:00.333Z,11.03
2023-03-16T18:48:49.079Z,13.27
2023-03-16T18:51:21.578Z,12.63
2023-03-16T18:53:53.628Z,16.27
2023-03-16T18:56:43.191Z,11.77
2023-03-16T18:59:15.578Z,10.57
2023-03-16T19:01:49.024Z,10.90
2023-03-16T19:04:26.161Z,14.60
2023-03-16T19:06:58.413Z,18.30
2023-03-16T19:09:30.783Z,13.50
2023-03-16T19:12:01.310Z,13.63
2023-03-16T19:14:52.427Z,16.77
2023-03-16T19:17:25.322Z,12.87
2023-03-16T19:19:55.524Z,11.23
2023-03-16T19:22:26.774Z,10.60
2023-03-16T19:24:58.329Z,22.27
2023-03-16T19:27:47.294Z,13.23
2023-03-16T19:30:25.811Z,12.80
2023-03-16T19:32:58.833Z,11.53
2023-03-16T19:38:19.005Z,15.83
2023-03-16T19:40:51.574Z,15.83
2023-03-16T19:43:41.763Z,22.67
2023-03-16T19:46:33.701Z,14.73
2023-03-16T19:49:10.237Z,25.83
2023-03-16T19:51:40.905Z,20.33
2023-03-16T19:54:34.157Z,20.00
2023-03-16T19:57:09.614Z,28.40
2023-03-16T19:59:40.849Z,32.07
2023-03-16T20:02:27.657Z,27.43
2023-03-16T20:05:23.794Z,29.17
2023-03-16T20:07:54.632Z,27.70
2023-03-16T20:10:26.529Z,24.27
2023-03-16T20:12:58.553Z,24.27
2023-03-16T20:15:32.902Z,23.93
2023-03-16T20:18:04.629Z,18.23
2023-03-16T20:20:38.155Z,18.63
2023-03-16T20:23:19.095Z,17.43
2023-03-16T20:25:52.693Z,16.57
2023-03-16T20:28:24.661Z,15.17
2023-03-16T20:31:18.707Z,15.27
2023-03-16T20:34:06.361Z,15.27
2023-03-16T20:36:56.562Z,15.67
2023-03-16T20:39:45.734Z,15.63
2023-03-16T20:42:19.648Z,16.63
2023-03-16T20:44:49.949Z,26.17
2023-03-16T20:47:22.130Z,25.63
2023-03-16T20:49:55.638Z,25.27
2023-03-16T20:52:31.191Z,26.37
2023-03-16T20:55:01.502Z,22.23
2023-03-16T20:57:52.189Z,26.83
2023-03-16T21:00:36.245Z,26.30
2023-03-16T21:03:08.918Z,22.73
2023-03-16T21:05:42.200Z,23.97
2023-03-16T21:08:15.234Z,20.00
2023-03-16T21:11:03.640Z,18.10
2023-03-16T21:13:35.634Z,14.00
2023-03-16T21:16:05.962Z,16.20
2023-03-16T21:18:39.635Z,20.37
2023-03-16T21:21:11.913Z,19.50
2023-03-16T21:23:43.552Z,21.23
2023-03-16T21:29:09.298Z,16.77
2023-03-16T21:31:39.674Z,16.83
2023-03-16T21:34:24.180Z,17.30
2023-03-16T21:36:55.009Z,17.33
2023-03-16T21:39:44.392Z,18.67
2023-03-16T21:42:15.252Z,22.57
2023-03-16T21:44:45.923Z,27.23
2023-03-16T21:47:25.699Z,20.93
2023-03-16T21:49:56.231Z,20.17
2023-03-16T21:52:28.702Z,21.57
2023-03-16T21:55:03.433Z,19.67
2023-03-16T21:57:35.494Z,19.43
2023-03-16T22:00:05.816Z,17.80
2023-03-16T22:02:37.509Z,18.37
2023-03-16T22:05:25.819Z,17.17
2023-03-16T22:07:55.621Z,16.63
2023-03-16T22:10:28.305Z,17.47
2023-03-16T22:12:59.855Z,16.73
2023-03-16T22:15:49.028Z,16.70
2023-03-16T22:18:46.269Z,17.67
2023-03-16T22:21:28.650Z,17.13
2023-03-16T22:23:59.930Z,17.10
2023-03-16T22:26:32.393Z,15.67
2023-03-16T22:29:03.448Z,14.73
2023-03-16T22:31:36.348Z,18.23
2023-03-16T22:34:08.696Z,18.57
2023-03-16T22:36:57.800Z,18.90
2023-03-16T22:39:28.300Z,18.17
2023-03-16T22:41:59.854Z,17.17
2023-03-16T22:44:30.172Z,17.13
2023-03-16T22:47:00.107Z,18.53
2023-03-16T22:49:31.029Z,18.80
2023-03-16T22:52:01.030Z,20.20
2023-03-16T22:54:31.590Z,19.03
2023-03-16T22:57:21.864Z,19.37
2023-03-16T22:59:53.007Z,18.47
2023-03-16T23:02:27.091Z,18.77
2023-03-16T23:05:24.178Z,20.57
2023-03-16T23:08:11.396Z,19.27
2023-03-16T23:10:44.481Z,17.87
2023-03-16T23:13:18.694Z,18.17
2023-03-16T23:15:51.974Z,16.87
2023-03-16T23:18:23.743Z,17.37
2023-03-16T23:20:54.287Z,17.70
2023-03-16T23:23:24.552Z,20.90
2023-03-16T23:26:11.306Z,20.67
2023-03-16T23:28:43.875Z,18.63
2023-03-16T23:31:14.851Z,18.60
2023-03-16T23:33:45.862Z,16.43
2023-03-16T23:36:17.921Z,16.83
2023-03-16T23:38:49.280Z,16.50
2023-03-16T23:41:22.682Z,14.07
2023-03-16T23:43:55.365Z,14.33
2023-03-16T23:46:28.550Z,13.53
2023-03-16T23:49:00.702Z,13.50
2023-03-16T23:51:32.774Z,13.27
2023-03-16T23:54:02.891Z,12.57
2023-03-16T23:56:33.013Z,10.30
2023-03-16T23:59:04.662Z,10.63
